Time;durP1;ratioP1;P1;durP2;ratioP2;P2;SDS_P1;SDS_P2;PMS_P1;PMS_P2;Temp;Humidity;BMP_temperature;BMP_pressure;BME280_temperature;BME280_humidity;BME280_pressure;Samples;Min_cycle;Max_cycle;Signal;HPM_P1;HPM_P2
2021/03/10 00:01:17;;;;;;;19.15;11.77;;;5.00;99.90;;;;;;5070742;28;20032;-72
2021/03/10 00:03:42;;;;;;;17.77;9.52;;;5.00;99.90;;;;;;5093584;28;20020;-73
2021/03/10 00:06:08;;;;;;;17.23;9.75;;;5.00;99.90;;;;;;5089780;28;20047;-72
2021/03/10 00:08:34;;;;;;;18.02;11.38;;;5.00;99.90;;;;;;5093573;28;20024;-73
2021/03/10 00:10:59;;;;;;;19.58;12.05;;;4.90;99.90;;;;;;5088476;28;20146;-72
2021/03/10 00:13:25;;;;;;;17.80;10.10;;;4.80;99.90;;;;;;5077427;28;20031;-72
2021/03/10 00:15:51;;;;;;;17.20;11.30;;;4.80;99.90;;;;;;5091359;28;20040;-72
2021/03/10 00:18:16;;;;;;;16.55;10.07;;;4.90;99.90;;;;;;5092030;28;20034;-72
2021/03/10 00:20:42;;;;;;;16.35;9.48;;;4.90;99.90;;;;;;5091793;28;20559;-73
2021/03/10 00:23:08;;;;;;;17.15;10.05;;;4.90;99.90;;;;;;5091838;28;20028;-72
2021/03/10 00:25:33;;;;;;;16.27;9.82;;;4.80;99.90;;;;;;5084946;28;20093;-72
2021/03/10 00:27:59;;;;;;;18.40;10.23;;;4.70;99.90;;;;;;5082948;28;20394;-72
2021/03/10 00:30:25;;;;;;;19.30;10.05;;;4.70;99.90;;;;;;5077739;28;20032;-72
2021/03/10 00:32:51;;;;;;;17.45;10.60;;;4.80;99.90;;;;;;5089879;28;20030;-72
2021/03/10 00:35:16;;;;;;;16.25;9.98;;;4.80;99.90;;;;;;5082559;28;20160;-72
2021/03/10 00:37:42;;;;;;;14.90;9.50;;;4.70;99.90;;;;;;5089173;28;20095;-72
2021/03/10 00:40:08;;;;;;;18.98;10.52;;;4.80;99.90;;;;;;5075846;28;20093;-72
2021/03/10 00:42:34;;;;;;;18.05;10.68;;;4.70;99.90;;;;;;5088603;28;20035;-72
2021/03/10 00:44:59;;;;;;;17.75;10.38;;;4.70;99.90;;;;;;5089845;28;20032;-72
2021/03/10 00:47:25;;;;;;;16.83;9.60;;;4.60;99.90;;;;;;5087078;28;20059;-72
2021/03/10 00:49:51;;;;;;;15.45;9.02;;;4.70;99.90;;;;;;5090708;28;20035;-72
2021/03/10 00:52:16;;;;;;;17.77;9.90;;;4.70;99.90;;;;;;5092607;28;20031;-72
2021/03/10 00:54:42;;;;;;;15.00;9.45;;;4.60;99.90;;;;;;5081600;28;20036;-72
2021/03/10 00:57:08;;;;;;;16.00;9.40;;;4.60;99.90;;;;;;5089069;28;20028;-71
2021/03/10 00:59:34;;;;;;;15.90;8.73;;;4.60;99.90;;;;;;5091917;28;20390;-72
2021/03/10 01:02:00;;;;;;;13.27;8.02;;;4.50;99.90;;;;;;5092180;28;20063;-72
2021/03/10 01:04:26;;;;;;;15.07;7.72;;;4.30;99.90;;;;;;5091115;28;20060;-73
2021/03/10 01:06:52;;;;;;;13.38;8.73;;;4.20;99.90;;;;;;5090216;28;20016;-72
2021/03/10 01:09:18;;;;;;;14.40;8.93;;;4.30;99.90;;;;;;5085322;28;20028;-72
2021/03/10 01:11:44;;;;;;;14.00;8.98;;;4.40;99.90;;;;;;5086777;28;20039;-73
2021/03/10 01:14:10;;;;;;;16.35;8.95;;;4.30;99.90;;;;;;5079094;28;20500;-72
2021/03/10 01:16:36;;;;;;;15.93;7.97;;;4.30;99.90;;;;;;5087645;28;20244;-72
2021/03/10 01:19:03;;;;;;;15.65;9.10;;;4.20;99.90;;;;;;5074547;28;20032;-72
2021/03/10 01:21:28;;;;;;;14.10;8.20;;;4.20;99.90;;;;;;5086531;28;20063;-72
2021/03/10 01:23:54;;;;;;;15.27;8.73;;;4.20;99.90;;;;;;5076008;28;20485;-72
2021/03/10 01:26:20;;;;;;;14.40;8.02;;;4.10;99.90;;;;;;5088094;28;20024;-72
2021/03/10 01:28:45;;;;;;;17.38;9.52;;;4.00;99.90;;;;;;5092268;28;20030;-72
2021/03/10 01:31:11;;;;;;;14.68;8.63;;;4.00;99.90;;;;;;5089197;28;20030;-72
2021/03/10 01:33:37;;;;;;;14.13;8.43;;;4.10;99.90;;;;;;5083401;28;20074;-72
2021/03/10 01:36:03;;;;;;;15.45;8.07;;;4.20;99.90;;;;;;5087144;28;20634;-73
2021/03/10 01:38:28;;;;;;;13.98;8.60;;;4.30;99.90;;;;;;5091445;28;20051;-72
2021/03/10 01:40:54;;;;;;;15.07;7.60;;;4.20;99.90;;;;;;5086255;28;20056;-73
2021/03/10 01:43:20;;;;;;;15.02;8.90;;;4.20;99.90;;;;;;5089920;28;20094;-72
2021/03/10 01:45:45;;;;;;;13.73;7.88;;;4.00;99.90;;;;;;5090975;28;20102;-71
2021/03/10 01:48:12;;;;;;;14.93;8.68;;;4.10;99.90;;;;;;5091127;28;20561;-72
2021/03/10 01:50:37;;;;;;;15.35;8.30;;;4.00;99.90;;;;;;5090730;28;20066;-73
2021/03/10 01:53:04;;;;;;;14.18;8.48;;;4.00;99.90;;;;;;5088869;28;20393;-72
2021/03/10 01:55:31;;;;;;;14.60;9.13;;;3.80;99.90;;;;;;5090868;28;20483;-72
2021/03/10 01:57:57;;;;;;;15.23;8.50;;;3.80;99.90;;;;;;5091695;28;20052;-72
2021/03/10 02:00:24;;;;;;;15.80;7.68;;;3.70;99.90;;;;;;5090932;28;20378;-72
2021/03/10 02:02:50;;;;;;;14.82;8.45;;;3.60;99.90;;;;;;5089528;28;20032;-72
2021/03/10 02:05:21;;;;;;;13.20;8.07;;;3.70;99.90;;;;;;5088472;28;20028;-72
2021/03/10 02:08:06;;;;;;;14.32;8.65;;;3.70;99.90;;;;;;5088732;28;20032;-72
2021/03/10 02:10:50;;;;;;;;;;;3.60;99.90;;;;;;5090404;28;20073;-72
2021/03/10 02:13:37;;;;;;;14.55;8.05;;;3.60;99.90;;;;;;5080622;28;19908;-72
2021/03/10 02:16:18;;;;;;;12.57;6.82;;;3.70;99.90;;;;;;5077237;28;20381;-73
2021/03/10 02:18:55;;;;;;;13.07;8.38;;;3.70;99.90;;;;;;5092211;28;20486;-72
2021/03/10 02:21:27;;;;;;;15.30;7.07;;;3.70;99.90;;;;;;5095605;28;20016;-72
2021/03/10 02:24:11;;;;;;;11.63;6.55;;;3.60;99.90;;;;;;5090368;28;20024;-72
2021/03/10 02:27:15;;;;;;;13.85;6.30;;;3.60;99.90;;;;;;5095052;28;20028;-72
2021/03/10 02:29:42;;;;;;;12.50;6.78;;;3.40;99.90;;;;;;5083110;28;20037;-72
2021/03/10 02:32:10;;;;;;;12.15;7.15;;;3.60;99.90;;;;;;5094709;28;20024;-73
2021/03/10 02:34:37;;;;;;;13.77;6.57;;;3.50;99.90;;;;;;5088971;28;20560;-72
2021/03/10 02:37:04;;;;;;;12.43;6.35;;;3.60;99.90;;;;;;5086399;28;20024;-72
2021/03/10 02:39:31;;;;;;;13.00;6.00;;;3.60;99.90;;;;;;5095239;28;20031;-72
2021/03/10 02:41:57;;;;;;;11.90;6.05;;;3.80;99.90;;;;;;5093863;28;20545;-72
2021/03/10 02:44:24;;;;;;;12.18;5.63;;;3.90;99.90;;;;;;5092618;28;20074;-72
2021/03/10 02:46:50;;;;;;;11.48;6.78;;;3.70;99.90;;;;;;5090377;28;20044;-73
2021/03/10 02:49:17;;;;;;;9.85;5.75;;;3.70;99.90;;;;;;5093857;28;20024;-72
2021/03/10 02:51:45;;;;;;;10.02;4.97;;;3.70;99.90;;;;;;5081690;28;20107;-72
2021/03/10 02:54:14;;;;;;;11.88;5.68;;;3.60;99.90;;;;;;5087095;28;20032;-72
2021/03/10 02:56:42;;;;;;;8.60;4.25;;;3.50;99.90;;;;;;5087089;28;20069;-73
2021/03/10 02:59:08;;;;;;;8.38;4.30;;;3.20;99.90;;;;;;5074502;28;20029;-72
2021/03/10 03:01:34;;;;;;;10.13;4.65;;;3.20;99.90;;;;;;5081332;28;20032;-72
2021/03/10 03:03:59;;;;;;;10.38;4.28;;;3.20;99.90;;;;;;5082535;28;20085;-71
2021/03/10 03:06:25;;;;;;;8.95;5.10;;;2.80;99.90;;;;;;5074598;28;20044;-73
2021/03/10 03:08:51;;;;;;;10.40;4.28;;;2.90;99.90;;;;;;5092220;28;20020;-72
2021/03/10 03:11:17;;;;;;;7.35;4.15;;;2.80;99.90;;;;;;5092524;28;20020;-72
2021/03/10 03:13:42;;;;;;;8.73;4.50;;;2.80;99.90;;;;;;5092346;28;20591;-72
2021/03/10 03:16:08;;;;;;;9.38;4.50;;;2.80;99.90;;;;;;5092864;28;20363;-73
2021/03/10 03:18:35;;;;;;;8.32;4.80;;;2.90;99.90;;;;;;5076150;28;20522;-72
2021/03/10 03:21:01;;;;;;;8.65;4.25;;;2.80;99.90;;;;;;5093231;28;20024;-73
2021/03/10 03:23:28;;;;;;;8.73;4.88;;;3.00;99.90;;;;;;5094214;28;20110;-72
2021/03/10 03:25:55;;;;;;;7.03;3.78;;;2.90;99.90;;;;;;5093372;28;20028;-73
2021/03/10 03:28:25;;;;;;;10.05;5.50;;;2.90;99.90;;;;;;5079640;28;20036;-72
2021/03/10 03:30:53;;;;;;;9.32;5.35;;;3.00;99.90;;;;;;5092318;28;20031;-72
2021/03/10 03:33:23;;;;;;;7.32;4.10;;;3.00;99.90;;;;;;5074690;28;20032;-72
2021/03/10 03:35:55;;;;;;;6.22;3.53;;;2.80;99.90;;;;;;5091728;28;20044;-72
2021/03/10 03:38:25;;;;;;;6.38;3.05;;;2.80;99.90;;;;;;5083973;28;20024;-72
2021/03/10 03:40:52;;;;;;;7.20;3.65;;;2.70;99.90;;;;;;5074551;28;20017;-72
2021/03/10 03:43:19;;;;;;;6.70;3.20;;;2.70;99.90;;;;;;5086414;28;20051;-72
2021/03/10 03:45:45;;;;;;;7.80;3.63;;;2.80;99.90;;;;;;5093645;28;20537;-72
2021/03/10 03:48:12;;;;;;;6.20;3.83;;;2.90;99.90;;;;;;5090289;28;20122;-72
2021/03/10 03:50:41;;;;;;;9.88;4.35;;;3.00;99.90;;;;;;5090660;28;20020;-72
2021/03/10 03:53:06;;;;;;;12.07;3.67;;;3.10;99.90;;;;;;5092407;28;20395;-72
2021/03/10 03:55:32;;;;;;;7.97;4.28;;;3.10;99.90;;;;;;5092886;28;20069;-72
2021/03/10 03:57:58;;;;;;;7.35;3.97;;;3.20;99.90;;;;;;5092962;28;20024;-72
2021/03/10 04:00:26;;;;;;;8.52;4.78;;;3.20;99.90;;;;;;5077794;28;20078;-72
2021/03/10 04:02:52;;;;;;;7.93;4.28;;;3.20;99.90;;;;;;5075087;28;20478;-72
2021/03/10 04:05:19;;;;;;;8.75;3.97;;;3.00;99.90;;;;;;5081025;28;20028;-72
2021/03/10 04:07:49;;;;;;;6.40;2.85;;;3.10;99.90;;;;;;5079908;28;20024;-72
2021/03/10 04:10:16;;;;;;;7.45;3.45;;;3.00;99.90;;;;;;5074228;28;20541;-73
2021/03/10 04:12:42;;;;;;;6.40;3.60;;;2.90;99.90;;;;;;5085566;28;20490;-73
2021/03/10 04:15:10;;;;;;;11.18;4.03;;;2.90;99.90;;;;;;5085349;28;20047;-72
2021/03/10 04:17:35;;;;;;;8.25;4.43;;;3.00;99.90;;;;;;5076031;28;20026;-72
2021/03/10 04:20:03;;;;;;;7.53;4.47;;;2.90;99.90;;;;;;5071456;28;20024;-73
2021/03/10 04:22:29;;;;;;;7.72;5.03;;;2.90;99.90;;;;;;5065653;28;20048;-72
2021/03/10 04:24:54;;;;;;;10.63;4.50;;;2.70;99.90;;;;;;5065730;28;20020;-72
2021/03/10 04:27:20;;;;;;;6.45;3.53;;;2.50;99.90;;;;;;5082590;28;20084;-72
2021/03/10 04:29:46;;;;;;;8.18;3.72;;;2.60;99.90;;;;;;5076571;28;20123;-72
2021/03/10 04:32:11;;;;;;;6.60;2.78;;;2.50;99.90;;;;;;5067778;28;20836;-73
2021/03/10 04:34:37;;;;;;;9.05;4.63;;;2.50;99.90;;;;;;5077679;28;20059;-72
2021/03/10 04:37:02;;;;;;;9.85;4.25;;;2.40;99.90;;;;;;5067953;28;20389;-72
2021/03/10 04:39:28;;;;;;;6.45;3.63;;;2.40;99.90;;;;;;5083633;28;20123;-72
2021/03/10 04:41:54;;;;;;;6.63;2.83;;;2.40;99.90;;;;;;5083207;28;20039;-72
2021/03/10 04:44:20;;;;;;;7.75;3.75;;;2.40;99.90;;;;;;5084641;28;20039;-72
2021/03/10 04:46:45;;;;;;;6.25;3.38;;;2.60;99.90;;;;;;5085381;28;20494;-72
2021/03/10 04:49:11;;;;;;;8.38;4.78;;;2.70;99.90;;;;;;5064912;28;20104;-72
2021/03/10 04:51:36;;;;;;;6.82;3.33;;;2.70;99.90;;;;;;5072342;28;20047;-72
2021/03/10 04:54:03;;;;;;;8.07;3.53;;;2.60;99.90;;;;;;5084826;28;20023;-71
2021/03/10 04:56:28;;;;;;;8.32;3.80;;;2.60;99.90;;;;;;5084169;28;20062;-72
2021/03/10 04:58:54;;;;;;;9.85;4.10;;;2.50;99.90;;;;;;5084826;28;20455;-72
2021/03/10 05:01:20;;;;;;;8.38;4.05;;;2.60;99.90;;;;;;5083571;28;20035;-73
2021/03/10 05:03:45;;;;;;;9.88;4.28;;;2.50;99.90;;;;;;5083509;28;20028;-72
2021/03/10 05:06:12;;;;;;;7.75;3.67;;;2.50;99.90;;;;;;5081247;28;20881;-72
2021/03/10 05:08:37;;;;;;;5.28;2.65;;;2.50;99.90;;;;;;5084285;28;20031;-72
2021/03/10 05:11:03;;;;;;;7.43;2.97;;;2.40;99.90;;;;;;5083961;28;20032;-73
2021/03/10 05:13:29;;;;;;;7.13;3.47;;;2.40;99.90;;;;;;5081456;28;20030;-72
2021/03/10 05:15:54;;;;;;;5.50;3.17;;;2.20;99.90;;;;;;5080267;28;20062;-72
2021/03/10 05:18:20;;;;;;;7.35;3.42;;;2.40;99.90;;;;;;5080434;28;20029;-72
2021/03/10 05:20:46;;;;;;;6.65;3.75;;;2.40;99.90;;;;;;5071811;28;20630;-72
2021/03/10 05:23:11;;;;;;;11.32;5.43;;;2.40;99.90;;;;;;5064519;28;20031;-72
2021/03/10 05:25:38;;;;;;;8.10;3.80;;;2.60;99.90;;;;;;5083210;28;20028;-73
2021/03/10 05:28:04;;;;;;;10.57;3.80;;;2.50;99.90;;;;;;5083414;28;20039;-72
2021/03/10 05:30:29;;;;;;;7.75;4.18;;;2.60;99.90;;;;;;5083131;28;20024;-72
2021/03/10 05:32:55;;;;;;;8.60;3.95;;;2.60;99.90;;;;;;5082474;28;20032;-72
2021/03/10 05:35:21;;;;;;;8.20;4.53;;;2.40;99.90;;;;;;5082515;28;20043;-72
2021/03/10 05:37:47;;;;;;;15.45;6.15;;;2.50;99.90;;;;;;5084494;28;20099;-72
2021/03/10 05:40:14;;;;;;;9.20;4.75;;;2.50;99.90;;;;;;5083481;28;20051;-72
2021/03/10 05:42:41;;;;;;;10.98;5.13;;;2.60;99.90;;;;;;5084360;28;20021;-72
2021/03/10 05:45:09;;;;;;;10.80;4.22;;;2.50;99.90;;;;;;5081705;28;20077;-72
2021/03/10 05:47:35;;;;;;;9.07;4.57;;;2.40;99.90;;;;;;5084242;28;20035;-72
2021/03/10 05:50:01;;;;;;;8.25;3.72;;;2.30;99.90;;;;;;5082141;28;20382;-72
2021/03/10 05:52:28;;;;;;;8.60;3.22;;;2.20;99.90;;;;;;5088464;28;20073;-72
2021/03/10 05:54:55;;;;;;;8.18;4.32;;;2.20;99.90;;;;;;5083325;28;20044;-72
2021/03/10 05:57:21;;;;;;;8.40;4.28;;;2.30;99.90;;;;;;5079897;28;20043;-72
2021/03/10 05:59:47;;;;;;;8.43;4.63;;;2.50;99.90;;;;;;5077813;28;20158;-72
2021/03/10 06:02:13;;;;;;;8.05;3.28;;;2.50;99.90;;;;;;5088250;28;20028;-72
2021/03/10 06:04:42;;;;;;;9.38;3.75;;;2.40;99.90;;;;;;5087298;28;20347;-72
2021/03/10 06:07:24;;;;;;;9.30;4.18;;;2.40;99.90;;;;;;5073979;28;20445;-72
2021/03/10 06:10:01;;;;;;;7.63;4.30;;;2.20;99.90;;;;;;5077855;28;20439;-72
2021/03/10 06:12:59;;;;;;;6.72;3.10;;;2.30;99.90;;;;;;5083877;28;20028;-73
2021/03/10 06:15:24;;;;;;;7.43;3.58;;;2.30;99.90;;;;;;5072678;28;20040;-72
2021/03/10 06:17:50;;;;;;;8.80;5.10;;;2.20;99.90;;;;;;5080337;28;20386;-72
2021/03/10 06:20:24;;;;;;;9.77;4.25;;;2.30;99.90;;;;;;5082464;28;20028;-72
2021/03/10 06:22:50;;;;;;;10.07;4.85;;;2.30;99.90;;;;;;5086015;28;20119;-72
2021/03/10 06:25:16;;;;;;;9.23;4.38;;;2.30;99.90;;;;;;5074094;28;20051;-72
2021/03/10 06:27:53;;;;;;;6.82;3.65;;;2.40;99.90;;;;;;5075839;28;20039;-71
2021/03/10 06:30:30;;;;;;;12.10;3.47;;;2.40;99.90;;;;;;5082875;28;20028;-71
2021/03/10 06:32:56;;;;;;;7.88;4.70;;;2.40;99.90;;;;;;5073982;28;20047;-71
2021/03/10 06:35:29;;;;;;;7.85;3.72;;;2.50;99.90;;;;;;5071284;28;20491;-71
2021/03/10 06:38:14;;;;;;;9.35;4.72;;;3.00;99.90;;;;;;5087391;28;20084;-71
2021/03/10 06:40:50;;;;;;;12.85;6.03;;;2.60;99.90;;;;;;5084878;28;20043;-71
2021/03/10 06:43:16;;;;;;;9.48;4.57;;;2.50;99.90;;;;;;5067386;28;20042;-71
2021/03/10 06:45:42;;;;;;;8.00;4.55;;;2.50;99.90;;;;;;5085179;28;20070;-70
2021/03/10 06:48:22;;;;;;;11.00;3.80;;;2.50;99.90;;;;;;5067731;28;20386;-72
2021/03/10 06:50:48;;;;;;;10.93;5.20;;;2.50;99.90;;;;;;5066999;28;20406;-71
2021/03/10 06:53:15;;;;;;;8.07;3.92;;;2.50;99.90;;;;;;5065475;28;20381;-71
2021/03/10 06:55:45;;;;;;;7.95;4.28;;;2.50;99.90;;;;;;5081894;28;20434;-71
2021/03/10 06:58:21;;;;;;;7.95;3.95;;;2.50;99.90;;;;;;5084846;28;20397;-71
2021/03/10 07:00:47;;;;;;;8.02;4.10;;;2.40;99.90;;;;;;5086974;28;20544;-71
2021/03/10 07:03:13;;;;;;;7.47;4.38;;;2.50;99.90;;;;;;5086701;28;20020;-71
2021/03/10 07:05:40;;;;;;;8.05;4.18;;;2.50;99.90;;;;;;5067068;28;20028;-70
2021/03/10 07:08:06;;;;;;;7.93;4.20;;;2.50;99.90;;;;;;5074357;28;20024;-71
2021/03/10 07:10:32;;;;;;;9.07;4.97;;;2.60;99.90;;;;;;5086503;28;20378;-71
2021/03/10 07:12:59;;;;;;;9.30;4.75;;;2.70;99.90;;;;;;5091574;28;20496;-70
2021/03/10 07:15:27;;;;;;;8.38;5.03;;;2.60;99.90;;;;;;5070583;28;20095;-70
2021/03/10 07:17:54;;;;;;;7.57;4.03;;;2.70;99.90;;;;;;5075616;28;20040;-69
2021/03/10 07:20:20;;;;;;;10.10;4.70;;;2.80;99.90;;;;;;5066279;28;20059;-70
2021/03/10 07:23:09;;;;;;;10.85;4.57;;;2.90;99.90;;;;;;5066361;28;20094;-70
2021/03/10 07:25:40;;;;;;;10.73;5.63;;;3.00;99.90;;;;;;5065992;28;20106;-70
2021/03/10 07:28:22;;;;;;;11.23;5.78;;;2.80;99.90;;;;;;5065872;28;20382;-71
2021/03/10 07:30:49;;;;;;;7.78;5.00;;;2.80;99.90;;;;;;5067440;28;20044;-70
2021/03/10 07:33:17;;;;;;;10.85;5.93;;;2.90;99.90;;;;;;5066077;28;20033;-71
2021/03/10 07:35:50;;;;;;;10.45;5.88;;;2.90;99.90;;;;;;5081591;28;20091;-71
2021/03/10 07:38:17;;;;;;;9.38;5.00;;;3.00;99.90;;;;;;5069102;28;20039;-71
2021/03/10 07:40:57;;;;;;;9.65;6.25;;;3.10;99.90;;;;;;5079581;28;20020;-71
2021/03/10 07:43:47;;;;;;;10.90;5.78;;;3.10;99.90;;;;;;5067922;28;20202;-70
2021/03/10 07:46:26;;;;;;;9.55;5.45;;;3.10;99.90;;;;;;5085881;28;20039;-71
2021/03/10 07:48:53;;;;;;;10.43;5.63;;;3.00;99.90;;;;;;5065895;28;20099;-70
2021/03/10 07:51:33;;;;;;;9.80;5.47;;;3.10;99.90;;;;;;5071095;28;20136;-70
2021/03/10 07:54:01;;;;;;;9.00;5.72;;;3.20;99.90;;;;;;5084408;28;20039;-70
2021/03/10 07:56:30;;;;;;;11.35;6.13;;;3.20;99.90;;;;;;5085616;28;20032;-70
2021/03/10 07:59:11;;;;;;;12.25;6.20;;;3.20;99.90;;;;;;5084574;28;20042;-71
2021/03/10 08:01:37;;;;;;;8.65;5.07;;;3.30;99.90;;;;;;5083572;28;20123;-70
2021/03/10 08:04:13;;;;;;;7.32;4.40;;;3.40;99.90;;;;;;5082286;28;20121;-70
2021/03/10 08:06:59;;;;;;;9.43;4.95;;;3.40;99.90;;;;;;5064799;28;20064;-70
2021/03/10 08:09:27;;;;;;;9.63;5.32;;;3.50;99.90;;;;;;5069372;28;20489;-70
2021/03/10 08:12:08;;;;;;;14.23;5.50;;;3.70;99.90;;;;;;5081811;28;20035;-70
2021/03/10 08:14:36;;;;;;;10.10;5.28;;;3.80;99.90;;;;;;5076241;28;20099;-70
2021/03/10 08:17:02;;;;;;;11.07;4.47;;;3.70;99.90;;;;;;5069679;28;20557;-70
2021/03/10 08:19:28;;;;;;;10.68;4.82;;;3.70;99.90;;;;;;5083654;28;20047;-70
2021/03/10 08:21:55;;;;;;;7.93;3.80;;;3.70;99.90;;;;;;5082987;28;20435;-70
2021/03/10 08:24:25;;;;;;;9.23;4.45;;;3.70;99.90;;;;;;5064743;28;20024;-70
2021/03/10 08:26:57;;;;;;;9.52;4.88;;;3.80;99.90;;;;;;5078239;28;20028;-70
2021/03/10 08:29:24;;;;;;;7.68;4.97;;;4.00;99.90;;;;;;5073533;28;20039;-70
2021/03/10 08:31:55;;;;;;;8.95;4.35;;;4.00;99.90;;;;;;5083993;28;20114;-70
2021/03/10 08:34:34;;;;;;;9.73;4.97;;;4.10;99.90;;;;;;5081980;28;20047;-70
2021/03/10 08:37:01;;;;;;;8.73;4.72;;;4.20;99.90;;;;;;5083297;28;20099;-70
2021/03/10 08:39:27;;;;;;;6.85;4.65;;;4.30;99.90;;;;;;5084789;28;20028;-70
2021/03/10 08:41:55;;;;;;;11.38;6.13;;;4.20;99.90;;;;;;5081244;28;20482;-70
2021/03/10 08:44:23;;;;;;;13.65;5.22;;;4.30;99.90;;;;;;5075609;28;20093;-70
2021/03/10 08:46:50;;;;;;;7.68;4.38;;;4.20;99.90;;;;;;5070319;28;20025;-70
2021/03/10 08:49:23;;;;;;;9.73;5.18;;;4.30;99.90;;;;;;5072480;28;20064;-70
2021/03/10 08:52:01;;;;;;;9.00;5.33;;;4.30;99.90;;;;;;5070139;28;20016;-70
2021/03/10 08:54:28;;;;;;;9.18;4.53;;;4.40;99.90;;;;;;5080658;28;20115;-70
2021/03/10 08:56:54;;;;;;;9.02;4.85;;;4.40;99.90;;;;;;5075214;28;20032;-70
2021/03/10 08:59:19;;;;;;;24.63;10.18;;;4.50;99.90;;;;;;5079144;28;20339;-70
2021/03/10 09:01:50;;;;;;;11.48;5.65;;;4.50;99.90;;;;;;5077826;28;20032;-70
2021/03/10 09:04:26;;;;;;;8.30;4.32;;;4.60;99.90;;;;;;5080265;28;20028;-70
2021/03/10 09:06:54;;;;;;;10.45;4.47;;;4.70;99.90;;;;;;5081482;28;20040;-71
2021/03/10 09:09:21;;;;;;;9.30;5.88;;;4.60;99.60;;;;;;5083995;28;20035;-70
2021/03/10 09:11:48;;;;;;;8.75;4.18;;;4.70;99.90;;;;;;5084941;28;20093;-70
2021/03/10 09:14:14;;;;;;;9.63;5.15;;;4.80;99.90;;;;;;5083536;28;20020;-70
2021/03/10 09:17:09;;;;;;;7.20;4.88;;;4.80;99.90;;;;;;5083510;28;20534;-70
2021/03/10 09:19:41;;;;;;;7.10;4.57;;;4.90;99.90;;;;;;5071883;28;20044;-70
2021/03/10 09:22:22;;;;;;;8.20;4.43;;;5.00;99.90;;;;;;5078645;28;20486;-70
2021/03/10 09:25:02;;;;;;;10.43;5.05;;;5.20;99.90;;;;;;5085009;28;20028;-70
2021/03/10 09:27:30;;;;;;;12.23;5.80;;;5.20;99.90;;;;;;5083592;28;20073;-70
2021/03/10 09:30:11;;;;;;;11.32;4.55;;;5.20;99.90;;;;;;5084489;28;20024;-70
2021/03/10 09:32:43;;;;;;;8.65;4.97;;;5.40;99.90;;;;;;5082841;28;20093;-70
2021/03/10 09:35:18;;;;;;;9.10;4.53;;;5.50;99.90;;;;;;5082640;28;20051;-70
2021/03/10 09:37:49;;;;;;;8.05;4.85;;;5.60;99.90;;;;;;5084462;28;20056;-71
2021/03/10 09:40:16;;;;;;;8.98;4.25;;;5.70;99.90;;;;;;5072173;28;20032;-70
2021/03/10 09:42:46;;;;;;;8.10;4.80;;;5.80;99.90;;;;;;5074734;28;20028;-71
2021/03/10 09:45:26;;;;;;;8.45;5.28;;;5.70;99.70;;;;;;5082365;28;20019;-70
2021/03/10 09:47:53;;;;;;;9.57;4.88;;;5.90;99.90;;;;;;5084180;28;20027;-69
2021/03/10 09:50:31;;;;;;;8.18;4.88;;;6.10;99.50;;;;;;5076783;28;20734;-70
2021/03/10 09:52:59;;;;;;;9.73;4.72;;;6.10;98.70;;;;;;5082124;28;20028;-70
2021/03/10 09:55:26;;;;;;;8.38;4.75;;;6.30;98.90;;;;;;5084325;28;20020;-70
2021/03/10 09:58:21;;;;;;;10.73;5.35;;;6.30;98.70;;;;;;5083298;28;20024;-71
2021/03/10 10:00:58;;;;;;;8.90;5.30;;;6.40;98.30;;;;;;5073012;28;20060;-71
2021/03/10 10:03:25;;;;;;;9.50;5.28;;;6.40;98.40;;;;;;5068582;28;20028;-70
2021/03/10 10:05:51;;;;;;;9.15;4.53;;;6.40;98.50;;;;;;5084244;28;20032;-71
2021/03/10 10:08:17;;;;;;;9.80;5.32;;;6.50;97.60;;;;;;5083702;28;20031;-71
2021/03/10 10:10:42;;;;;;;6.75;4.10;;;6.60;97.70;;;;;;5064134;28;20490;-71
2021/03/10 10:13:08;;;;;;;12.02;5.13;;;6.90;97.90;;;;;;5063135;28;20028;-71
2021/03/10 10:15:34;;;;;;;9.43;5.15;;;7.10;98.20;;;;;;5080782;28;20063;-71
2021/03/10 10:18:03;;;;;;;11.48;5.22;;;7.00;96.80;;;;;;5083991;28;20027;-71
2021/03/10 10:20:32;;;;;;;7.35;4.03;;;7.20;97.70;;;;;;5078640;28;20032;-71
2021/03/10 10:22:58;;;;;;;8.55;4.82;;;7.40;97.20;;;;;;5081807;28;20553;-71
2021/03/10 10:25:24;;;;;;;10.43;4.53;;;7.30;96.40;;;;;;5081144;28;20134;-70
2021/03/10 10:27:50;;;;;;;8.27;4.32;;;7.40;97.00;;;;;;5074391;28;20025;-71
2021/03/10 10:30:18;;;;;;;7.30;4.05;;;7.40;96.90;;;;;;5063930;28;20082;-70
2021/03/10 10:32:47;;;;;;;8.68;3.85;;;7.40;95.70;;;;;;5063632;28;20063;-71
2021/03/10 10:35:14;;;;;;;7.68;4.60;;;7.40;95.50;;;;;;5072832;28;20045;-71
2021/03/10 10:37:41;;;;;;;7.40;4.38;;;7.60;94.90;;;;;;5065169;28;20040;-70
2021/03/10 10:40:18;;;;;;;7.85;3.70;;;7.80;94.80;;;;;;5077578;28;20343;-71
2021/03/10 10:42:51;;;;;;;7.57;4.57;;;8.00;93.20;;;;;;5087094;28;20036;-71
2021/03/10 10:45:17;;;;;;;7.07;3.95;;;8.20;93.90;;;;;;5087021;28;20017;-71
2021/03/10 10:47:43;;;;;;;9.57;4.70;;;8.30;92.30;;;;;;5085234;28;20046;-70
2021/03/10 10:50:11;;;;;;;13.88;5.22;;;8.60;93.50;;;;;;5086838;28;20062;-71
2021/03/10 10:52:37;;;;;;;10.77;4.53;;;8.70;91.90;;;;;;5083541;28;20035;-71
2021/03/10 10:55:11;;;;;;;7.85;4.60;;;8.70;91.50;;;;;;5087172;28;20040;-71
2021/03/10 10:57:37;;;;;;;7.75;4.90;;;8.60;89.50;;;;;;5085352;28;20035;-70
2021/03/10 11:00:11;;;;;;;8.95;4.00;;;8.80;89.30;;;;;;5087407;28;20032;-70
2021/03/10 11:02:37;;;;;;;8.98;4.03;;;8.90;88.60;;;;;;5079275;28;20024;-71
2021/03/10 11:05:05;;;;;;;9.13;5.25;;;9.00;89.30;;;;;;5086311;28;20020;-71
2021/03/10 11:07:30;;;;;;;9.65;5.70;;;9.20;87.10;;;;;;5071824;28;20097;-71
2021/03/10 11:09:56;;;;;;;9.20;5.07;;;9.50;88.10;;;;;;5087213;28;20059;-71
2021/03/10 11:12:22;;;;;;;8.48;5.15;;;9.60;85.00;;;;;;5086193;28;20486;-71
2021/03/10 11:14:48;;;;;;;12.43;8.63;;;10.00;87.90;;;;;;5085818;28;20418;-71
2021/03/10 11:17:13;;;;;;;9.50;6.00;;;10.00;82.20;;;;;;5085009;28;20028;-71
2021/03/10 11:19:39;;;;;;;8.48;6.63;;;10.10;82.10;;;;;;5085241;28;20028;-71
2021/03/10 11:22:07;;;;;;;9.20;5.93;;;10.30;80.70;;;;;;5083113;28;20853;-71
2021/03/10 11:24:36;;;;;;;13.07;8.68;;;10.40;83.00;;;;;;5084113;28;20024;-71
2021/03/10 11:27:03;;;;;;;7.50;4.50;;;10.50;80.30;;;;;;5074159;28;20043;-71
2021/03/10 11:29:29;;;;;;;7.47;4.28;;;10.40;80.70;;;;;;5068846;28;20174;-71
2021/03/10 11:31:55;;;;;;;9.73;6.93;;;10.70;78.20;;;;;;5086039;28;20039;-71
2021/03/10 11:34:21;;;;;;;22.42;15.82;;;10.70;78.10;;;;;;5082841;28;20382;-71
2021/03/10 11:36:47;;;;;;;9.80;5.35;;;10.60;76.20;;;;;;5074989;28;20035;-71
2021/03/10 11:39:14;;;;;;;16.67;12.57;;;10.80;80.00;;;;;;5066617;28;20435;-71
2021/03/10 11:41:40;;;;;;;11.35;8.30;;;10.90;78.20;;;;;;5065767;28;20025;-71
2021/03/10 11:44:06;;;;;;;8.80;4.60;;;10.70;76.60;;;;;;5068980;28;20643;-71
2021/03/10 11:46:32;;;;;;;7.50;4.28;;;10.60;77.50;;;;;;5086543;28;20103;-71
2021/03/10 11:48:58;;;;;;;6.82;3.80;;;10.60;76.20;;;;;;5084781;28;20466;-71
2021/03/10 11:51:24;;;;;;;9.52;7.10;;;10.70;71.80;;;;;;5083963;28;20032;-71
2021/03/10 11:53:51;;;;;;;16.48;9.60;;;10.90;74.90;;;;;;5085369;28;20024;-71
2021/03/10 11:56:17;;;;;;;9.75;6.40;;;11.00;74.80;;;;;;5075529;28;20104;-71
2021/03/10 11:58:43;;;;;;;8.55;4.35;;;11.10;71.40;;;;;;5066099;28;20486;-71
2021/03/10 12:01:09;;;;;;;12.65;7.35;;;11.20;74.20;;;;;;5072893;28;20020;-71
2021/03/10 12:03:34;;;;;;;10.93;7.32;;;11.50;69.50;;;;;;5083112;28;20073;-71
2021/03/10 12:06:01;;;;;;;6.50;3.92;;;11.50;73.50;;;;;;5077166;28;20040;-71
2021/03/10 12:08:27;;;;;;;5.88;3.42;;;11.80;71.80;;;;;;5086217;28;20055;-71
2021/03/10 12:10:53;;;;;;;8.57;5.18;;;12.00;73.40;;;;;;5085091;28;20471;-71
2021/03/10 12:13:18;;;;;;;7.65;3.63;;;12.00;72.40;;;;;;5086032;28;20502;-71
2021/03/10 12:15:44;;;;;;;7.40;4.15;;;12.30;71.10;;;;;;5073500;28;20028;-72
2021/03/10 12:18:10;;;;;;;8.82;3.53;;;12.20;70.20;;;;;;5084200;28;20355;-72
2021/03/10 12:20:36;;;;;;;6.60;3.47;;;12.30;71.70;;;;;;5084045;28;20115;-71
2021/03/10 12:23:02;;;;;;;8.68;4.00;;;12.20;70.00;;;;;;5078028;28;20034;-71
2021/03/10 12:25:28;;;;;;;7.30;3.85;;;12.00;70.90;;;;;;5085268;28;20478;-71
2021/03/10 12:27:57;;;;;;;7.38;3.80;;;11.90;68.00;;;;;;5084001;28;20036;-72
2021/03/10 12:30:23;;;;;;;6.53;3.30;;;11.90;70.80;;;;;;5082133;28;20036;-72
2021/03/10 12:32:49;;;;;;;8.25;3.65;;;12.00;67.20;;;;;;5083472;28;20126;-71
2021/03/10 12:35:16;;;;;;;10.23;4.70;;;12.20;66.00;;;;;;5084056;28;20052;-71
2021/03/10 12:37:41;;;;;;;6.63;3.30;;;12.00;62.50;;;;;;5066121;28;20553;-71
2021/03/10 12:40:08;;;;;;;14.32;7.93;;;12.30;64.80;;;;;;5074697;28;20110;-71
2021/03/10 12:42:34;;;;;;;8.27;4.07;;;12.30;62.90;;;;;;5077164;28;20124;-70
2021/03/10 12:45:02;;;;;;;6.07;3.08;;;12.30;65.20;;;;;;5084548;28;20097;-71
2021/03/10 12:47:28;;;;;;;9.27;6.10;;;12.30;62.30;;;;;;5083805;28;20024;-71
2021/03/10 12:49:54;;;;;;;5.05;3.15;;;12.20;63.60;;;;;;5084948;28;20032;-71
2021/03/10 12:52:20;;;;;;;4.38;2.25;;;12.40;60.20;;;;;;5069147;28;20028;-71
2021/03/10 12:54:45;;;;;;;6.38;3.28;;;12.30;60.90;;;;;;5083606;28;20364;-71
2021/03/10 12:57:11;;;;;;;5.13;2.88;;;12.30;60.20;;;;;;5082137;28;20038;-71